sensor_id;sensor_type;location;lat;lon;timestamp;P1;durP1;ratioP1;P2;durP2;ratioP2
15764;SDS011;7983;50.744;7.086;2023-11-21T00:00:03;3.90;;;2.08;;
15764;SDS011;7983;50.744;7.086;2023-11-21T00:02:39;3.00;;;1.90;;
15764;SDS011;7983;50.744;7.086;2023-11-21T00:05:09;3.90;;;1.90;;
15764;SDS011;7983;50.744;7.086;2023-11-21T00:07:36;3.15;;;1.90;;
15764;SDS011;7983;50.744;7.086;2023-11-21T00:10:04;2.30;;;1.80;;
15764;SDS011;7983;50.744;7.086;2023-11-21T00:12:31;2.28;;;1.80;;
15764;SDS011;7983;50.744;7.086;2023-11-21T00:15:00;3.13;;;1.70;;
15764;SDS011;7983;50.744;7.086;2023-11-21T00:17:26;2.15;;;1.77;;
15764;SDS011;7983;50.744;7.086;2023-11-21T00:19:55;1.95;;;1.75;;
15764;SDS011;7983;50.744;7.086;2023-11-21T00:22:20;3.13;;;2.15;;
15764;SDS011;7983;50.744;7.086;2023-11-21T00:24:48;2.55;;;2.00;;
15764;SDS011;7983;50.744;7.086;2023-11-21T00:27:16;2.65;;;2.10;;
15764;SDS011;7983;50.744;7.086;2023-11-21T00:29:42;3.03;;;1.95;;
15764;SDS011;7983;50.744;7.086;2023-11-21T00:32:07;3.55;;;1.98;;
15764;SDS011;7983;50.744;7.086;2023-11-21T00:34:35;2.85;;;2.13;;
15764;SDS011;7983;50.744;7.086;2023-11-21T00:37:01;3.25;;;2.15;;
15764;SDS011;7983;50.744;7.086;2023-11-21T00:39:27;3.33;;;1.90;;
15764;SDS011;7983;50.744;7.086;2023-11-21T00:41:53;2.75;;;2.05;;
15764;SDS011;7983;50.744;7.086;2023-11-21T00:44:19;3.25;;;2.08;;
15764;SDS011;7983;50.744;7.086;2023-11-21T00:46:44;2.75;;;1.90;;
15764;SDS011;7983;50.744;7.086;2023-11-21T00:49:10;3.97;;;2.30;;
15764;SDS011;7983;50.744;7.086;2023-11-21T00:51:36;2.65;;;1.98;;
15764;SDS011;7983;50.744;7.086;2023-11-21T01:04:18;2.70;;;2.50;;
15764;SDS011;7983;50.744;7.086;2023-11-21T01:06:43;3.70;;;2.92;;
15764;SDS011;7983;50.744;7.086;2023-11-21T01:09:14;3.75;;;2.60;;
15764;SDS011;7983;50.744;7.086;2023-11-21T01:11:43;3.70;;;2.95;;
15764;SDS011;7983;50.744;7.086;2023-11-21T01:14:09;4.68;;;3.38;;
15764;SDS011;7983;50.744;7.086;2023-11-21T01:16:43;3.58;;;2.67;;
15764;SDS011;7983;50.744;7.086;2023-11-21T01:19:11;4.75;;;3.05;;
15764;SDS011;7983;50.744;7.086;2023-11-21T01:21:41;3.78;;;3.03;;
15764;SDS011;7983;50.744;7.086;2023-11-21T01:24:07;4.05;;;3.50;;
15764;SDS011;7983;50.744;7.086;2023-11-21T01:32:50;5.82;;;3.80;;
15764;SDS011;7983;50.744;7.086;2023-11-21T01:35:19;5.57;;;3.80;;
15764;SDS011;7983;50.744;7.086;2023-11-21T01:37:44;5.63;;;4.07;;
15764;SDS011;7983;50.744;7.086;2023-11-21T01:40:12;4.28;;;3.55;;
15764;SDS011;7983;50.744;7.086;2023-11-21T01:42:39;5.50;;;3.92;;
15764;SDS011;7983;50.744;7.086;2023-11-21T01:45:08;6.13;;;4.22;;
15764;SDS011;7983;50.744;7.086;2023-11-21T01:47:50;4.53;;;3.92;;
15764;SDS011;7983;50.744;7.086;2023-11-21T01:57:00;5.30;;;3.47;;
15764;SDS011;7983;50.744;7.086;2023-11-21T01:59:29;4.47;;;3.72;;
15764;SDS011;7983;50.744;7.086;2023-11-21T02:02:08;5.00;;;3.53;;
15764;SDS011;7983;50.744;7.086;2023-11-21T02:04:34;4.10;;;3.35;;
15764;SDS011;7983;50.744;7.086;2023-11-21T02:07:03;6.15;;;3.50;;
15764;SDS011;7983;50.744;7.086;2023-11-21T02:09:32;4.15;;;3.47;;
15764;SDS011;7983;50.744;7.086;2023-11-21T02:11:59;4.88;;;3.60;;
15764;SDS011;7983;50.744;7.086;2023-11-21T02:14:25;5.10;;;3.65;;
15764;SDS011;7983;50.744;7.086;2023-11-21T02:16:58;3.58;;;3.13;;
15764;SDS011;7983;50.744;7.086;2023-11-21T02:19:26;4.72;;;3.40;;
15764;SDS011;7983;50.744;7.086;2023-11-21T02:21:56;5.55;;;3.45;;
15764;SDS011;7983;50.744;7.086;2023-11-21T02:24:33;4.53;;;3.15;;
15764;SDS011;7983;50.744;7.086;2023-11-21T02:26:59;4.85;;;3.70;;
15764;SDS011;7983;50.744;7.086;2023-11-21T02:29:30;4.70;;;3.78;;
15764;SDS011;7983;50.744;7.086;2023-11-21T02:31:58;6.32;;;3.75;;
15764;SDS011;7983;50.744;7.086;2023-11-21T02:34:24;4.30;;;3.50;;
15764;SDS011;7983;50.744;7.086;2023-11-21T02:36:50;5.00;;;3.63;;
15764;SDS011;7983;50.744;7.086;2023-11-21T02:39:16;4.68;;;3.47;;
15764;SDS011;7983;50.744;7.086;2023-11-21T02:41:43;5.57;;;3.97;;
15764;SDS011;7983;50.744;7.086;2023-11-21T02:44:11;4.88;;;3.85;;
15764;SDS011;7983;50.744;7.086;2023-11-21T02:46:36;5.53;;;4.05;;
15764;SDS011;7983;50.744;7.086;2023-11-21T02:49:06;6.68;;;4.38;;
15764;SDS011;7983;50.744;7.086;2023-11-21T02:51:32;5.07;;;3.72;;
15764;SDS011;7983;50.744;7.086;2023-11-21T02:53:58;5.70;;;4.28;;
15764;SDS011;7983;50.744;7.086;2023-11-21T02:56:28;5.43;;;4.07;;
15764;SDS011;7983;50.744;7.086;2023-11-21T02:58:59;5.78;;;4.50;;
15764;SDS011;7983;50.744;7.086;2023-11-21T03:01:25;7.18;;;4.38;;
15764;SDS011;7983;50.744;7.086;2023-11-21T03:03:53;6.68;;;4.25;;
15764;SDS011;7983;50.744;7.086;2023-11-21T03:06:20;6.65;;;4.55;;
15764;SDS011;7983;50.744;7.086;2023-11-21T03:08:46;8.75;;;4.82;;
15764;SDS011;7983;50.744;7.086;2023-11-21T03:11:12;5.60;;;4.43;;
15764;SDS011;7983;50.744;7.086;2023-11-21T03:13:41;6.78;;;4.60;;
15764;SDS011;7983;50.744;7.086;2023-11-21T03:16:08;8.00;;;5.10;;
15764;SDS011;7983;50.744;7.086;2023-11-21T03:18:34;5.53;;;4.35;;
15764;SDS011;7983;50.744;7.086;2023-11-21T03:20:59;6.88;;;4.93;;
15764;SDS011;7983;50.744;7.086;2023-11-21T03:23:28;5.78;;;4.43;;
15764;SDS011;7983;50.744;7.086;2023-11-21T03:25:54;7.05;;;5.10;;
15764;SDS011;7983;50.744;7.086;2023-11-21T03:28:19;7.45;;;4.97;;
15764;SDS011;7983;50.744;7.086;2023-11-21T03:30:45;6.25;;;5.32;;
15764;SDS011;7983;50.744;7.086;2023-11-21T03:33:10;8.23;;;6.00;;
15764;SDS011;7983;50.744;7.086;2023-11-21T03:35:37;7.95;;;6.47;;
15764;SDS011;7983;50.744;7.086;2023-11-21T03:38:06;9.02;;;6.82;;
15764;SDS011;7983;50.744;7.086;2023-11-21T03:40:32;9.30;;;6.28;;
15764;SDS011;7983;50.744;7.086;2023-11-21T03:42:58;10.35;;;6.93;;
15764;SDS011;7983;50.744;7.086;2023-11-21T03:45:24;8.00;;;6.50;;
15764;SDS011;7983;50.744;7.086;2023-11-21T03:47:49;8.57;;;6.03;;
15764;SDS011;7983;50.744;7.086;2023-11-21T03:50:20;9.93;;;6.57;;
15764;SDS011;7983;50.744;7.086;2023-11-21T03:52:47;10.70;;;6.78;;
15764;SDS011;7983;50.744;7.086;2023-11-21T03:55:13;9.02;;;6.75;;
15764;SDS011;7983;50.744;7.086;2023-11-21T03:57:39;9.65;;;6.95;;
15764;SDS011;7983;50.744;7.086;2023-11-21T04:00:05;10.20;;;7.28;;
15764;SDS011;7983;50.744;7.086;2023-11-21T04:02:33;9.05;;;7.03;;
15764;SDS011;7983;50.744;7.086;2023-11-21T04:05:00;8.80;;;6.53;;
15764;SDS011;7983;50.744;7.086;2023-11-21T04:07:26;10.48;;;8.07;;
15764;SDS011;7983;50.744;7.086;2023-11-21T04:09:52;10.75;;;7.57;;
15764;SDS011;7983;50.744;7.086;2023-11-21T04:12:18;8.60;;;6.72;;
15764;SDS011;7983;50.744;7.086;2023-11-21T04:14:47;9.43;;;7.25;;
15764;SDS011;7983;50.744;7.086;2023-11-21T04:17:12;10.35;;;7.40;;
15764;SDS011;7983;50.744;7.086;2023-11-21T04:19:38;10.57;;;7.40;;
15764;SDS011;7983;50.744;7.086;2023-11-21T04:22:03;9.52;;;7.47;;
15764;SDS011;7983;50.744;7.086;2023-11-21T04:24:31;10.77;;;7.15;;
15764;SDS011;7983;50.744;7.086;2023-11-21T04:26:57;10.30;;;7.45;;
15764;SDS011;7983;50.744;7.086;2023-11-21T04:29:22;11.43;;;7.40;;
15764;SDS011;7983;50.744;7.086;2023-11-21T04:31:48;9.35;;;6.80;;
15764;SDS011;7983;50.744;7.086;2023-11-21T04:34:14;10.73;;;7.53;;
15764;SDS011;7983;50.744;7.086;2023-11-21T04:36:40;9.63;;;6.68;;
15764;SDS011;7983;50.744;7.086;2023-11-21T04:39:10;10.13;;;7.13;;
15764;SDS011;7983;50.744;7.086;2023-11-21T04:41:36;13.38;;;7.25;;
15764;SDS011;7983;50.744;7.086;2023-11-21T04:44:04;11.40;;;6.88;;
15764;SDS011;7983;50.744;7.086;2023-11-21T04:46:30;10.20;;;7.20;;
15764;SDS011;7983;50.744;7.086;2023-11-21T04:49:01;10.60;;;7.40;;
15764;SDS011;7983;50.744;7.086;2023-11-21T04:51:29;11.13;;;7.50;;
15764;SDS011;7983;50.744;7.086;2023-11-21T04:53:54;9.73;;;7.13;;
15764;SDS011;7983;50.744;7.086;2023-11-21T04:56:22;17.92;;;12.73;;
15764;SDS011;7983;50.744;7.086;2023-11-21T04:58:48;13.20;;;9.68;;
15764;SDS011;7983;50.744;7.086;2023-11-21T05:01:13;12.73;;;8.27;;
15764;SDS011;7983;50.744;7.086;2023-11-21T05:03:39;13.32;;;8.00;;
15764;SDS011;7983;50.744;7.086;2023-11-21T05:06:09;10.88;;;7.57;;
15764;SDS011;7983;50.744;7.086;2023-11-21T05:08:35;9.15;;;7.05;;
15764;SDS011;7983;50.744;7.086;2023-11-21T05:11:02;9.57;;;7.13;;
15764;SDS011;7983;50.744;7.086;2023-11-21T05:13:28;9.93;;;6.80;;
15764;SDS011;7983;50.744;7.086;2023-11-21T05:15:54;8.90;;;6.57;;
15764;SDS011;7983;50.744;7.086;2023-11-21T05:18:23;9.93;;;6.50;;
15764;SDS011;7983;50.744;7.086;2023-11-21T05:20:52;8.23;;;6.45;;
15764;SDS011;7983;50.744;7.086;2023-11-21T05:23:18;8.80;;;7.00;;
15764;SDS011;7983;50.744;7.086;2023-11-21T05:25:46;9.52;;;6.97;;
15764;SDS011;7983;50.744;7.086;2023-11-21T05:28:14;11.13;;;6.90;;
15764;SDS011;7983;50.744;7.086;2023-11-21T05:30:42;10.90;;;7.03;;
15764;SDS011;7983;50.744;7.086;2023-11-21T05:33:11;10.77;;;6.95;;
15764;SDS011;7983;50.744;7.086;2023-11-21T05:35:37;11.52;;;7.07;;
15764;SDS011;7983;50.744;7.086;2023-11-21T05:38:02;10.38;;;7.55;;
15764;SDS011;7983;50.744;7.086;2023-11-21T05:40:28;11.20;;;7.65;;
15764;SDS011;7983;50.744;7.086;2023-11-21T05:42:55;10.68;;;7.60;;
15764;SDS011;7983;50.744;7.086;2023-11-21T05:45:23;12.18;;;7.25;;
15764;SDS011;7983;50.744;7.086;2023-11-21T05:47:49;10.85;;;7.30;;
15764;SDS011;7983;50.744;7.086;2023-11-21T05:50:15;11.07;;;7.68;;
15764;SDS011;7983;50.744;7.086;2023-11-21T05:52:42;12.25;;;7.38;;
15764;SDS011;7983;50.744;7.086;2023-11-21T05:55:09;11.13;;;7.97;;
15764;SDS011;7983;50.744;7.086;2023-11-21T05:57:35;11.23;;;7.68;;
15764;SDS011;7983;50.744;7.086;2023-11-21T06:00:06;13.15;;;7.85;;
15764;SDS011;7983;50.744;7.086;2023-11-21T06:03:01;11.48;;;7.05;;
15764;SDS011;7983;50.744;7.086;2023-11-21T06:05:31;10.23;;;7.50;;
15764;SDS011;7983;50.744;7.086;2023-11-21T06:07:58;11.77;;;7.88;;
15764;SDS011;7983;50.744;7.086;2023-11-21T06:10:26;12.43;;;7.65;;
15764;SDS011;7983;50.744;7.086;2023-11-21T06:12:55;10.18;;;7.10;;
15764;SDS011;7983;50.744;7.086;2023-11-21T06:15:22;12.85;;;8.60;;
15764;SDS011;7983;50.744;7.086;2023-11-21T06:17:49;12.75;;;8.70;;
15764;SDS011;7983;50.744;7.086;2023-11-21T06:20:20;12.48;;;8.32;;
15764;SDS011;7983;50.744;7.086;2023-11-21T06:22:47;13.13;;;8.52;;
15764;SDS011;7983;50.744;7.086;2023-11-21T06:25:15;12.75;;;8.65;;
15764;SDS011;7983;50.744;7.086;2023-11-21T06:27:44;11.57;;;8.52;;
15764;SDS011;7983;50.744;7.086;2023-11-21T06:30:11;14.45;;;8.85;;
15764;SDS011;7983;50.744;7.086;2023-11-21T06:32:38;12.80;;;8.57;;
15764;SDS011;7983;50.744;7.086;2023-11-21T06:35:10;12.85;;;8.38;;
15764;SDS011;7983;50.744;7.086;2023-11-21T06:37:41;11.50;;;8.00;;
15764;SDS011;7983;50.744;7.086;2023-11-21T06:40:12;13.70;;;8.68;;
15764;SDS011;7983;50.744;7.086;2023-11-21T06:42:42;13.90;;;8.95;;
15764;SDS011;7983;50.744;7.086;2023-11-21T06:45:09;14.13;;;8.68;;
15764;SDS011;7983;50.744;7.086;2023-11-21T06:47:40;11.93;;;8.88;;
15764;SDS011;7983;50.744;7.086;2023-11-21T06:50:06;14.00;;;9.15;;
15764;SDS011;7983;50.744;7.086;2023-11-21T06:52:32;16.15;;;9.55;;
15764;SDS011;7983;50.744;7.086;2023-11-21T06:54:58;15.02;;;9.15;;
15764;SDS011;7983;50.744;7.086;2023-11-21T06:57:23;13.38;;;8.80;;
15764;SDS011;7983;50.744;7.086;2023-11-21T06:59:52;14.68;;;9.27;;
15764;SDS011;7983;50.744;7.086;2023-11-21T07:02:17;13.57;;;9.07;;
15764;SDS011;7983;50.744;7.086;2023-11-21T07:04:44;15.48;;;9.15;;
15764;SDS011;7983;50.744;7.086;2023-11-21T07:07:11;12.35;;;7.93;;
15764;SDS011;7983;50.744;7.086;2023-11-21T07:09:39;13.77;;;8.90;;
15764;SDS011;7983;50.744;7.086;2023-11-21T07:12:05;14.43;;;8.32;;
15764;SDS011;7983;50.744;7.086;2023-11-21T07:14:35;12.02;;;8.25;;
15764;SDS011;7983;50.744;7.086;2023-11-21T07:17:00;16.45;;;7.85;;
15764;SDS011;7983;50.744;7.086;2023-11-21T07:19:26;13.40;;;8.15;;
15764;SDS011;7983;50.744;7.086;2023-11-21T07:21:51;12.60;;;8.32;;
15764;SDS011;7983;50.744;7.086;2023-11-21T07:24:17;11.93;;;8.25;;
15764;SDS011;7983;50.744;7.086;2023-11-21T07:26:43;12.20;;;7.75;;
15764;SDS011;7983;50.744;7.086;2023-11-21T07:29:13;11.45;;;7.88;;
15764;SDS011;7983;50.744;7.086;2023-11-21T07:31:38;12.82;;;8.48;;
15764;SDS011;7983;50.744;7.086;2023-11-21T07:34:06;11.30;;;8.05;;
15764;SDS011;7983;50.744;7.086;2023-11-21T07:36:35;13.82;;;8.77;;
15764;SDS011;7983;50.744;7.086;2023-11-21T07:39:03;13.23;;;8.55;;
15764;SDS011;7983;50.744;7.086;2023-11-21T07:41:31;11.80;;;7.93;;
15764;SDS011;7983;50.744;7.086;2023-11-21T07:43:57;13.38;;;8.48;;
15764;SDS011;7983;50.744;7.086;2023-11-21T07:46:25;10.68;;;7.03;;
15764;SDS011;7983;50.744;7.086;2023-11-21T07:48:53;11.80;;;7.38;;
15764;SDS011;7983;50.744;7.086;2023-11-21T07:51:20;11.98;;;7.80;;
15764;SDS011;7983;50.744;7.086;2023-11-21T07:53:47;12.13;;;8.27;;
15764;SDS011;7983;50.744;7.086;2023-11-21T07:56:15;14.35;;;8.75;;
15764;SDS011;7983;50.744;7.086;2023-11-21T07:58:41;10.23;;;6.55;;
15764;SDS011;7983;50.744;7.086;2023-11-21T08:01:09;10.50;;;6.97;;
15764;SDS011;7983;50.744;7.086;2023-11-21T08:03:44;10.80;;;7.13;;
15764;SDS011;7983;50.744;7.086;2023-11-21T08:06:09;12.73;;;8.20;;
15764;SDS011;7983;50.744;7.086;2023-11-21T08:08:35;13.15;;;8.02;;
15764;SDS011;7983;50.744;7.086;2023-11-21T08:11:03;12.57;;;8.25;;
15764;SDS011;7983;50.744;7.086;2023-11-21T08:13:35;12.52;;;8.60;;
15764;SDS011;7983;50.744;7.086;2023-11-21T08:16:03;13.90;;;8.40;;
15764;SDS011;7983;50.744;7.086;2023-11-21T08:18:37;13.40;;;8.55;;
15764;SDS011;7983;50.744;7.086;2023-11-21T08:21:06;13.45;;;8.85;;
15764;SDS011;7983;50.744;7.086;2023-11-21T08:23:32;14.43;;;8.90;;
15764;SDS011;7983;50.744;7.086;2023-11-21T08:25:59;14.13;;;8.93;;
15764;SDS011;7983;50.744;7.086;2023-11-21T08:28:28;12.18;;;8.45;;
15764;SDS011;7983;50.744;7.086;2023-11-21T08:30:53;14.20;;;8.57;;
15764;SDS011;7983;50.744;7.086;2023-11-21T08:33:24;14.63;;;9.15;;
15764;SDS011;7983;50.744;7.086;2023-11-21T08:35:49;14.50;;;8.65;;
15764;SDS011;7983;50.744;7.086;2023-11-21T08:38:15;13.32;;;8.60;;
15764;SDS011;7983;50.744;7.086;2023-11-21T08:40:41;13.38;;;8.90;;
15764;SDS011;7983;50.744;7.086;2023-11-21T08:43:06;16.20;;;9.48;;
15764;SDS011;7983;50.744;7.086;2023-11-21T08:45:33;15.35;;;9.43;;
15764;SDS011;7983;50.744;7.086;2023-11-21T08:47:59;15.98;;;9.63;;
15764;SDS011;7983;50.744;7.086;2023-11-21T08:50:28;14.23;;;9.20;;
15764;SDS011;7983;50.744;7.086;2023-11-21T08:52:54;16.25;;;9.43;;
15764;SDS011;7983;50.744;7.086;2023-11-21T08:55:19;15.02;;;8.57;;
15764;SDS011;7983;50.744;7.086;2023-11-21T08:57:47;16.63;;;9.02;;
15764;SDS011;7983;50.744;7.086;2023-11-21T09:00:13;13.10;;;8.88;;
15764;SDS011;7983;50.744;7.086;2023-11-21T09:02:42;12.02;;;8.05;;
15764;SDS011;7983;50.744;7.086;2023-11-21T09:05:12;14.07;;;8.60;;
15764;SDS011;7983;50.744;7.086;2023-11-21T09:07:41;14.57;;;8.77;;
15764;SDS011;7983;50.744;7.086;2023-11-21T09:10:07;14.95;;;9.02;;
15764;SDS011;7983;50.744;7.086;2023-11-21T09:12:36;14.23;;;8.45;;
15764;SDS011;7983;50.744;7.086;2023-11-21T09:15:05;12.77;;;9.13;;
15764;SDS011;7983;50.744;7.086;2023-11-21T09:17:32;15.52;;;9.38;;
15764;SDS011;7983;50.744;7.086;2023-11-21T09:20:02;16.52;;;10.10;;
15764;SDS011;7983;50.744;7.086;2023-11-21T09:22:31;15.30;;;9.63;;
15764;SDS011;7983;50.744;7.086;2023-11-21T09:24:57;15.98;;;10.02;;
15764;SDS011;7983;50.744;7.086;2023-11-21T09:27:23;18.02;;;10.68;;
15764;SDS011;7983;50.744;7.086;2023-11-21T09:29:50;15.20;;;10.20;;
15764;SDS011;7983;50.744;7.086;2023-11-21T09:32:16;16.83;;;10.27;;
15764;SDS011;7983;50.744;7.086;2023-11-21T09:34:43;16.48;;;10.85;;
15764;SDS011;7983;50.744;7.086;2023-11-21T09:37:12;16.55;;;10.07;;
15764;SDS011;7983;50.744;7.086;2023-11-21T09:39:40;17.95;;;9.98;;
15764;SDS011;7983;50.744;7.086;2023-11-21T09:42:13;16.20;;;10.85;;
15764;SDS011;7983;50.744;7.086;2023-11-21T09:47:26;16.13;;;10.57;;
15764;SDS011;7983;50.744;7.086;2023-11-21T09:49:53;16.70;;;10.68;;
15764;SDS011;7983;50.744;7.086;2023-11-21T09:52:27;16.38;;;10.30;;
15764;SDS011;7983;50.744;7.086;2023-11-21T09:54:53;18.13;;;10.93;;
15764;SDS011;7983;50.744;7.086;2023-11-21T09:57:22;17.42;;;11.00;;
15764;SDS011;7983;50.744;7.086;2023-11-21T09:59:52;18.75;;;11.27;;
15764;SDS011;7983;50.744;7.086;2023-11-21T10:02:28;18.92;;;11.40;;
15764;SDS011;7983;50.744;7.086;2023-11-21T10:04:55;22.10;;;13.50;;
15764;SDS011;7983;50.744;7.086;2023-11-21T10:07:21;22.13;;;13.45;;
15764;SDS011;7983;50.744;7.086;2023-11-21T10:09:50;24.08;;;15.15;;
15764;SDS011;7983;50.744;7.086;2023-11-21T10:12:16;21.42;;;13.73;;
15764;SDS011;7983;50.744;7.086;2023-11-21T10:14:42;23.38;;;13.82;;
15764;SDS011;7983;50.744;7.086;2023-11-21T10:17:10;21.60;;;14.05;;
15764;SDS011;7983;50.744;7.086;2023-11-21T10:19:39;21.23;;;12.60;;
15764;SDS011;7983;50.744;7.086;2023-11-21T10:22:05;20.45;;;12.52;;
15764;SDS011;7983;50.744;7.086;2023-11-21T10:24:34;19.70;;;11.93;;
15764;SDS011;7983;50.744;7.086;2023-11-21T10:27:01;20.33;;;11.95;;
15764;SDS011;7983;50.744;7.086;2023-11-21T10:29:31;20.60;;;12.05;;
15764;SDS011;7983;50.744;7.086;2023-11-21T10:32:01;20.52;;;12.13;;
15764;SDS011;7983;50.744;7.086;2023-11-21T10:34:29;18.65;;;11.90;;
15764;SDS011;7983;50.744;7.086;2023-11-21T10:36:55;20.25;;;13.00;;
15764;SDS011;7983;50.744;7.086;2023-11-21T10:39:23;20.27;;;13.13;;
15764;SDS011;7983;50.744;7.086;2023-11-21T10:41:52;23.35;;;13.07;;
15764;SDS011;7983;50.744;7.086;2023-11-21T10:44:20;20.02;;;12.65;;
15764;SDS011;7983;50.744;7.086;2023-11-21T10:46:53;22.55;;;13.60;;
15764;SDS011;7983;50.744;7.086;2023-11-21T10:49:27;20.60;;;12.05;;
15764;SDS011;7983;50.744;7.086;2023-11-21T10:51:56;21.75;;;13.45;;
15764;SDS011;7983;50.744;7.086;2023-11-21T10:54:24;22.02;;;13.48;;
15764;SDS011;7983;50.744;7.086;2023-11-21T10:56:53;24.23;;;14.68;;
15764;SDS011;7983;50.744;7.086;2023-11-21T10:59:23;20.00;;;13.02;;
15764;SDS011;7983;50.744;7.086;2023-11-21T11:01:57;22.25;;;14.13;;
15764;SDS011;7983;50.744;7.086;2023-11-21T11:04:25;20.92;;;12.63;;
15764;SDS011;7983;50.744;7.086;2023-11-21T11:07:02;20.73;;;13.27;;
15764;SDS011;7983;50.744;7.086;2023-11-21T11:09:33;21.25;;;12.73;;
15764;SDS011;7983;50.744;7.086;2023-11-21T11:11:59;19.70;;;12.38;;
15764;SDS011;7983;50.744;7.086;2023-11-21T11:14:29;22.63;;;12.90;;
15764;SDS011;7983;50.744;7.086;2023-11-21T11:16:55;23.10;;;14.00;;
15764;SDS011;7983;50.744;7.086;2023-11-21T11:19:24;23.20;;;14.10;;
15764;SDS011;7983;50.744;7.086;2023-11-21T11:22:12;21.15;;;13.35;;
15764;SDS011;7983;50.744;7.086;2023-11-21T11:35:46;22.05;;;12.90;;
15764;SDS011;7983;50.744;7.086;2023-11-21T11:38:21;21.52;;;12.80;;
15764;SDS011;7983;50.744;7.086;2023-11-21T11:40:48;21.55;;;13.50;;
15764;SDS011;7983;50.744;7.086;2023-11-21T11:43:25;22.27;;;13.93;;
15764;SDS011;7983;50.744;7.086;2023-11-21T11:45:57;20.40;;;13.02;;
15764;SDS011;7983;50.744;7.086;2023-11-21T11:48:28;22.13;;;13.52;;
15764;SDS011;7983;50.744;7.086;2023-11-21T11:51:04;21.38;;;13.50;;
15764;SDS011;7983;50.744;7.086;2023-11-21T11:53:35;25.67;;;14.88;;
15764;SDS011;7983;50.744;7.086;2023-11-21T11:58:53;20.92;;;13.32;;
15764;SDS011;7983;50.744;7.086;2023-11-21T12:01:20;22.02;;;13.82;;
15764;SDS011;7983;50.744;7.086;2023-11-21T12:06:42;19.00;;;12.88;;
15764;SDS011;7983;50.744;7.086;2023-11-21T12:09:23;18.98;;;12.10;;
15764;SDS011;7983;50.744;7.086;2023-11-21T12:11:52;21.00;;;12.40;;
15764;SDS011;7983;50.744;7.086;2023-11-21T12:14:19;20.90;;;13.02;;
15764;SDS011;7983;50.744;7.086;2023-11-21T12:16:46;19.77;;;12.18;;
15764;SDS011;7983;50.744;7.086;2023-11-21T12:19:13;16.90;;;11.10;;
15764;SDS011;7983;50.744;7.086;2023-11-21T12:21:43;18.60;;;11.98;;
15764;SDS011;7983;50.744;7.086;2023-11-21T12:24:11;18.38;;;11.20;;
15764;SDS011;7983;50.744;7.086;2023-11-21T12:26:39;17.63;;;11.00;;
15764;SDS011;7983;50.744;7.086;2023-11-21T12:29:05;16.73;;;11.07;;
15764;SDS011;7983;50.744;7.086;2023-11-21T12:31:32;14.98;;;10.52;;
15764;SDS011;7983;50.744;7.086;2023-11-21T12:33:59;13.70;;;9.88;;
15764;SDS011;7983;50.744;7.086;2023-11-21T12:36:25;17.35;;;10.68;;
15764;SDS011;7983;50.744;7.086;2023-11-21T12:38:51;15.68;;;9.88;;
15764;SDS011;7983;50.744;7.086;2023-11-21T12:41:19;18.88;;;11.10;;
15764;SDS011;7983;50.744;7.086;2023-11-21T12:43:47;15.25;;;10.50;;
15764;SDS011;7983;50.744;7.086;2023-11-21T12:46:13;16.15;;;10.57;;
15764;SDS011;7983;50.744;7.086;2023-11-21T12:48:43;16.77;;;10.35;;
15764;SDS011;7983;50.744;7.086;2023-11-21T12:51:11;16.23;;;9.52;;
15764;SDS011;7983;50.744;7.086;2023-11-21T12:53:40;21.00;;;10.85;;
15764;SDS011;7983;50.744;7.086;2023-11-21T12:56:10;15.40;;;9.68;;
15764;SDS011;7983;50.744;7.086;2023-11-21T12:58:43;15.52;;;10.43;;
15764;SDS011;7983;50.744;7.086;2023-11-21T13:01:13;17.60;;;10.15;;
15764;SDS011;7983;50.744;7.086;2023-11-21T13:03:45;15.75;;;9.90;;
15764;SDS011;7983;50.744;7.086;2023-11-21T13:06:13;15.52;;;9.70;;
15764;SDS011;7983;50.744;7.086;2023-11-21T13:08:40;16.70;;;10.05;;
15764;SDS011;7983;50.744;7.086;2023-11-21T13:11:05;19.80;;;10.27;;
15764;SDS011;7983;50.744;7.086;2023-11-21T13:13:31;14.25;;;9.73;;
15764;SDS011;7983;50.744;7.086;2023-11-21T13:15:58;14.35;;;9.07;;
15764;SDS011;7983;50.744;7.086;2023-11-21T13:18:33;15.38;;;9.55;;
15764;SDS011;7983;50.744;7.086;2023-11-21T13:21:02;15.95;;;9.20;;
15764;SDS011;7983;50.744;7.086;2023-11-21T13:23:40;16.88;;;9.43;;
15764;SDS011;7983;50.744;7.086;2023-11-21T13:26:07;16.45;;;9.30;;
15764;SDS011;7983;50.744;7.086;2023-11-21T13:28:34;16.10;;;10.25;;
15764;SDS011;7983;50.744;7.086;2023-11-21T13:31:00;16.60;;;10.23;;
15764;SDS011;7983;50.744;7.086;2023-11-21T13:33:35;16.85;;;9.57;;
15764;SDS011;7983;50.744;7.086;2023-11-21T13:36:04;17.73;;;9.68;;
15764;SDS011;7983;50.744;7.086;2023-11-21T13:38:34;14.73;;;9.65;;
15764;SDS011;7983;50.744;7.086;2023-11-21T13:41:01;16.33;;;9.60;;
15764;SDS011;7983;50.744;7.086;2023-11-21T13:43:27;14.90;;;10.02;;
15764;SDS011;7983;50.744;7.086;2023-11-21T13:45:56;13.85;;;9.73;;
15764;SDS011;7983;50.744;7.086;2023-11-21T13:48:41;17.42;;;9.73;;
15764;SDS011;7983;50.744;7.086;2023-11-21T13:51:10;19.33;;;9.23;;
15764;SDS011;7983;50.744;7.086;2023-11-21T13:53:45;13.93;;;9.00;;
15764;SDS011;7983;50.744;7.086;2023-11-21T13:56:14;16.48;;;9.48;;
15764;SDS011;7983;50.744;7.086;2023-11-21T13:58:44;15.60;;;9.75;;
15764;SDS011;7983;50.744;7.086;2023-11-21T14:01:19;19.27;;;10.10;;
15764;SDS011;7983;50.744;7.086;2023-11-21T14:04:00;14.45;;;8.93;;
15764;SDS011;7983;50.744;7.086;2023-11-21T14:06:37;19.13;;;9.40;;
15764;SDS011;7983;50.744;7.086;2023-11-21T14:09:12;16.08;;;9.45;;
15764;SDS011;7983;50.744;7.086;2023-11-21T14:11:50;14.90;;;9.27;;
15764;SDS011;7983;50.744;7.086;2023-11-21T14:14:22;16.05;;;9.50;;
15764;SDS011;7983;50.744;7.086;2023-11-21T14:16:52;14.88;;;9.40;;
15764;SDS011;7983;50.744;7.086;2023-11-21T14:19:21;16.23;;;9.82;;
15764;SDS011;7983;50.744;7.086;2023-11-21T14:21:51;14.93;;;9.70;;
15764;SDS011;7983;50.744;7.086;2023-11-21T14:24:18;15.73;;;9.85;;
15764;SDS011;7983;50.744;7.086;2023-11-21T14:26:44;16.33;;;9.90;;
15764;SDS011;7983;50.744;7.086;2023-11-21T14:29:11;14.98;;;9.68;;
15764;SDS011;7983;50.744;7.086;2023-11-21T14:31:39;13.32;;;9.48;;
15764;SDS011;7983;50.744;7.086;2023-11-21T14:34:06;18.52;;;10.55;;
15764;SDS011;7983;50.744;7.086;2023-11-21T14:36:32;16.90;;;9.98;;
15764;SDS011;7983;50.744;7.086;2023-11-21T14:38:58;16.10;;;10.00;;
15764;SDS011;7983;50.744;7.086;2023-11-21T14:41:24;14.32;;;10.07;;
15764;SDS011;7983;50.744;7.086;2023-11-21T14:43:54;15.40;;;9.68;;
15764;SDS011;7983;50.744;7.086;2023-11-21T14:46:20;19.95;;;10.23;;
15764;SDS011;7983;50.744;7.086;2023-11-21T14:48:46;19.23;;;11.23;;
15764;SDS011;7983;50.744;7.086;2023-11-21T14:51:25;15.82;;;10.13;;
15764;SDS011;7983;50.744;7.086;2023-11-21T14:53:56;15.18;;;9.88;;
15764;SDS011;7983;50.744;7.086;2023-11-21T14:56:30;18.88;;;11.07;;
15764;SDS011;7983;50.744;7.086;2023-11-21T14:58:59;17.45;;;10.60;;
15764;SDS011;7983;50.744;7.086;2023-11-21T15:01:41;18.77;;;10.05;;
15764;SDS011;7983;50.744;7.086;2023-11-21T15:04:18;15.43;;;9.52;;
15764;SDS011;7983;50.744;7.086;2023-11-21T15:07:03;16.83;;;10.93;;
15764;SDS011;7983;50.744;7.086;2023-11-21T15:09:29;15.90;;;9.85;;
15764;SDS011;7983;50.744;7.086;2023-11-21T15:11:58;18.00;;;10.90;;
15764;SDS011;7983;50.744;7.086;2023-11-21T15:14:44;16.23;;;10.20;;
15764;SDS011;7983;50.744;7.086;2023-11-21T15:17:17;16.67;;;10.27;;
15764;SDS011;7983;50.744;7.086;2023-11-21T15:19:55;16.63;;;10.18;;
15764;SDS011;7983;50.744;7.086;2023-11-21T15:22:21;19.65;;;11.52;;
15764;SDS011;7983;50.744;7.086;2023-11-21T15:24:47;14.95;;;9.93;;
15764;SDS011;7983;50.744;7.086;2023-11-21T15:27:14;17.63;;;10.32;;
15764;SDS011;7983;50.744;7.086;2023-11-21T15:29:40;16.38;;;10.10;;
15764;SDS011;7983;50.744;7.086;2023-11-21T15:32:09;18.27;;;10.48;;
15764;SDS011;7983;50.744;7.086;2023-11-21T15:34:38;20.00;;;11.38;;
15764;SDS011;7983;50.744;7.086;2023-11-21T15:37:04;19.52;;;10.45;;